Terminal Aerodrome Forecast
Issued by NWS Billings, MT

Home | Current Version | Previous Version | Graphics & Text | Print | Product List | Glossary On
Versions: 1 2 3 4 5 6 7 8 9 10 11 12 13 14 15 16 17 18 19 20 21 22 23 24 25 26 27 28 29 30 31 32
458
FTUS45 KBYZ 271202 AAA
TAFMLS
TAF AMD
KMLS 271202Z 2712/2812 VRB05KT P6SM SCT015 BKN060
      TEMPO 2712/2715 BKN015
     FM272200 VRB05KT P6SM BKN050
     FM280400 06008KT P6SM FEW015 SCT060=

USA.gov is the U.S. government's official web portal to all federal, state and local government web resources and services.